This is the latest recevied weather packets stored in our database for station/object VK1KCM-5. If no packets are shown the sender has not sent any weather packets the latest 10 day(s).
| Time | Temp. | Humidity | Pressure | Rain* | Wind** | Luminosity | Snow |
|---|---|---|---|---|---|---|---|
| 1787793702 | 14.44° C | 61% | 1025.1 hPa | 0 mm | - | - | - |
| 1787793432 | 14.44° C | 62% | 1025 hPa | 0 mm | - | - | - |
| 1787793152 | 13.89° C | 62% | 1025.2 hPa | 0 mm | - | - | - |
| 1787792907 | 13.89° C | 63% | 1025.1 hPa | 0 mm | - | - | - |
| 1787792612 | 13.89° C | 62% | 1025.5 hPa | 0 mm | - | - | - |
| 1787792367 | 12.78° C | 65% | 1025.5 hPa | 0 mm | - | - | - |
| 1787792082 | 13.89° C | 60% | 1025.3 hPa | 0 mm | - | - | - |
| 1787791802 | 13.33° C | 62% | 1025.3 hPa | 0 mm | - | - | - |
| 1787791532 | 12.78° C | 64% | 1025.7 hPa | 0 mm | - | - | - |
| 1787791278 | 12.78° C | 64% | 1025.7 hPa | 0 mm | - | - | - |
| 1787791037 | 12.78° C | 65% | 1025.8 hPa | 0 mm | - | - | - |
| 1787790752 | 12.22° C | 66% | 1025.9 hPa | 0 mm | - | - | - |
| 1787790497 | 12.22° C | 66% | 1025.8 hPa | 0 mm | - | - | - |
| 1787790217 | 12.22° C | 66% | 1025.9 hPa | 0 mm | - | - | - |
| 1787789964 | 12.22° C | 65% | 1025.7 hPa | 0 mm | - | - | - |
| 1787789717 | 11.67° C | 66% | 1026 hPa | 0 mm | - | - | - |
| 1787789477 | 11.67° C | 66% | 1026 hPa | 0 mm | - | - | - |
| 1787789212 | 11.67° C | 66% | 1026.1 hPa | 0 mm | - | - | - |
| 1787788937 | 12.22° C | 65% | 1025.8 hPa | 0 mm | - | - | - |
| 1787788662 | 12.22° C | 65% | 1025.8 hPa | 0 mm | - | - | - |
| 1787788404 | 11.11° C | 69% | 1025.9 hPa | 0 mm | - | - | - |
| 1787788147 | 11.11° C | 68% | 1026.1 hPa | 0 mm | - | - | - |
| 1787787906 | 11.67° C | 68% | 1026 hPa | 0 mm | - | - | - |
| 1787787657 | 11.67° C | 68% | 1026 hPa | 0 mm | - | - | - |
| 1787787357 | 10° C | 70% | 1026.6 hPa | 0 mm | - | - | - |
* Rain latest hour (hover to see other rain measurements)
** Current wind speed in m/s (hover to see current wind gust speed)